createdAt,value
2019-02-11T00:00:02.203Z,23.15
2019-02-11T00:02:43.705Z,22.93
2019-02-11T00:05:23.199Z,23.42
2019-02-11T00:08:03.164Z,23.52
2019-02-11T00:10:43.494Z,24.12
2019-02-11T00:13:25.206Z,23.02
2019-02-11T00:16:05.077Z,23.90
2019-02-11T00:18:43.970Z,24.05
2019-02-11T00:21:23.013Z,27.80
2019-02-11T00:24:01.970Z,25.35
2019-02-11T00:26:40.714Z,23.73
2019-02-11T00:29:20.511Z,22.82
2019-02-11T00:31:59.412Z,22.48
2019-02-11T00:34:39.964Z,23.00
2019-02-11T00:37:19.059Z,20.12
2019-02-11T00:39:59.163Z,20.92
2019-02-11T00:42:39.103Z,21.05
2019-02-11T00:45:18.510Z,20.77
2019-02-11T00:47:58.379Z,20.97
2019-02-11T00:50:37.668Z,20.95
2019-02-11T00:53:16.650Z,22.00
2019-02-11T00:55:55.558Z,20.75
2019-02-11T00:58:35.456Z,20.90
2019-02-11T01:01:13.795Z,22.00
2019-02-11T01:03:52.218Z,21.82
2019-02-11T01:06:39.697Z,21.33
2019-02-11T01:09:19.016Z,21.73
2019-02-11T01:11:57.913Z,21.85
2019-02-11T01:14:38.175Z,20.32
2019-02-11T01:17:20.352Z,19.80
2019-02-11T01:19:58.984Z,20.80
2019-02-11T01:22:39.204Z,20.75
2019-02-11T01:25:17.877Z,19.57
2019-02-11T01:27:57.003Z,19.35
2019-02-11T01:30:35.764Z,19.90
2019-02-11T01:33:14.415Z,19.35
2019-02-11T01:35:53.054Z,18.42
2019-02-11T01:38:32.450Z,19.48
2019-02-11T01:41:11.208Z,18.50
2019-02-11T01:43:49.652Z,19.17
2019-02-11T01:46:28.341Z,19.00
2019-02-11T01:49:07.769Z,18.45
2019-02-11T01:51:46.868Z,19.60
2019-02-11T01:54:25.982Z,20.30
2019-02-11T01:57:04.803Z,20.30
2019-02-11T01:59:44.025Z,20.05
2019-02-11T02:02:23.145Z,18.82
2019-02-11T02:05:05.615Z,18.15
2019-02-11T02:07:45.538Z,18.45
2019-02-11T02:10:24.426Z,19.30
2019-02-11T02:13:04.649Z,17.60
2019-02-11T02:15:44.212Z,17.73
2019-02-11T02:18:23.640Z,17.42
2019-02-11T02:21:02.839Z,18.48
2019-02-11T02:23:42.018Z,18.62
2019-02-11T02:26:22.752Z,18.62
2019-02-11T02:29:04.723Z,17.73
2019-02-11T02:31:43.872Z,16.57
2019-02-11T02:34:24.359Z,19.80
2019-02-11T02:37:03.517Z,18.92
2019-02-11T02:39:44.352Z,18.62
2019-02-11T02:42:24.259Z,18.20
2019-02-11T02:45:03.075Z,18.02
2019-02-11T02:47:42.437Z,19.00
2019-02-11T02:50:21.410Z,19.75
2019-02-11T02:53:01.487Z,18.65
2019-02-11T02:55:40.744Z,18.67
2019-02-11T02:58:20.131Z,19.87
2019-02-11T03:00:59.199Z,20.10
2019-02-11T03:03:38.803Z,20.40
2019-02-11T03:06:17.639Z,19.52
2019-02-11T03:08:56.638Z,19.30
2019-02-11T03:11:35.693Z,20.62
2019-02-11T03:14:17.705Z,21.52
2019-02-11T03:16:56.386Z,22.10
2019-02-11T03:19:35.443Z,21.52
2019-02-11T03:22:14.499Z,21.75
2019-02-11T03:24:53.708Z,19.02
2019-02-11T03:27:33.928Z,19.50
2019-02-11T03:30:14.521Z,19.60
2019-02-11T03:32:58.668Z,20.05
2019-02-11T03:35:37.625Z,20.48
2019-02-11T03:38:16.716Z,20.52
2019-02-11T03:40:55.692Z,19.95
2019-02-11T03:43:34.511Z,20.65
2019-02-11T03:46:13.651Z,20.25
2019-02-11T03:48:55.417Z,19.25
2019-02-11T03:51:34.782Z,18.60
2019-02-11T03:54:13.759Z,18.20
2019-02-11T03:56:52.778Z,19.23
2019-02-11T03:59:31.982Z,18.15
2019-02-11T04:02:11.201Z,17.70
2019-02-11T04:04:50.450Z,19.90
2019-02-11T04:07:29.565Z,19.55
2019-02-11T04:10:09.119Z,19.27
2019-02-11T04:12:48.851Z,19.50
2019-02-11T04:15:28.105Z,20.60
2019-02-11T04:18:07.333Z,22.40
2019-02-11T04:20:48.669Z,23.25
2019-02-11T04:23:30.291Z,24.95
2019-02-11T04:26:09.582Z,24.60
2019-02-11T04:28:48.838Z,24.47
2019-02-11T04:31:27.917Z,23.45
2019-02-11T04:34:07.190Z,22.95
2019-02-11T04:36:47.382Z,22.75
2019-02-11T04:39:26.670Z,22.90
2019-02-11T04:42:05.957Z,22.87
2019-02-11T04:44:45.340Z,23.32
2019-02-11T04:47:24.493Z,23.22
2019-02-11T04:50:03.816Z,22.52
2019-02-11T04:52:44.581Z,23.45
2019-02-11T04:55:27.689Z,21.80
2019-02-11T04:58:07.923Z,23.70
2019-02-11T05:00:48.224Z,22.13
2019-02-11T05:03:28.166Z,23.20
2019-02-11T05:06:07.908Z,20.77
2019-02-11T05:08:53.362Z,21.02
2019-02-11T05:11:34.429Z,22.60
2019-02-11T05:14:13.670Z,21.60
2019-02-11T05:16:52.763Z,21.50
2019-02-11T05:19:31.842Z,22.50
2019-02-11T05:22:11.062Z,21.05
2019-02-11T05:24:51.252Z,19.70
2019-02-11T05:27:30.537Z,21.68
2019-02-11T05:30:12.204Z,20.65
2019-02-11T05:32:51.542Z,20.97
2019-02-11T05:35:30.971Z,20.55
2019-02-11T05:38:11.749Z,22.60
2019-02-11T05:40:50.714Z,22.32
2019-02-11T05:43:31.090Z,21.40
2019-02-11T05:46:10.101Z,20.43
2019-02-11T05:48:49.217Z,22.17
2019-02-11T05:51:28.262Z,23.00
2019-02-11T05:54:08.226Z,22.15
2019-02-11T05:56:47.440Z,21.95
2019-02-11T05:59:26.711Z,23.20
2019-02-11T06:02:06.025Z,21.35
2019-02-11T06:04:46.612Z,20.12
2019-02-11T06:07:25.733Z,21.82
2019-02-11T06:10:05.408Z,23.65
2019-02-11T06:12:44.992Z,23.10
2019-02-11T06:15:24.363Z,23.20
2019-02-11T06:18:03.480Z,21.15
2019-02-11T06:20:42.656Z,23.57
2019-02-11T06:23:23.018Z,22.45
2019-02-11T06:26:01.902Z,24.05
2019-02-11T06:28:40.795Z,24.15
2019-02-11T06:31:20.910Z,25.05
2019-02-11T06:34:00.041Z,26.33
2019-02-11T06:36:41.075Z,25.70
2019-02-11T06:39:21.239Z,24.43
2019-02-11T06:42:00.432Z,22.37
2019-02-11T06:44:39.725Z,22.48
2019-02-11T06:47:22.966Z,22.17
2019-02-11T06:50:01.672Z,21.45
2019-02-11T06:52:41.885Z,21.02
2019-02-11T06:55:26.271Z,19.35
2019-02-11T06:58:05.458Z,20.75
2019-02-11T07:00:44.469Z,21.17
2019-02-11T07:03:23.667Z,19.82
2019-02-11T07:06:02.582Z,21.17
2019-02-11T07:08:43.110Z,22.00
2019-02-11T07:11:22.373Z,19.17
2019-02-11T07:14:04.990Z,19.02
2019-02-11T07:16:44.509Z,19.77
2019-02-11T07:19:23.539Z,19.98
2019-02-11T07:22:03.097Z,19.27
2019-02-11T07:24:42.642Z,20.20
2019-02-11T07:27:21.559Z,20.55
2019-02-11T07:30:01.766Z,20.97
2019-02-11T07:32:42.902Z,20.48
2019-02-11T07:35:22.602Z,20.32
2019-02-11T07:38:02.908Z,20.50
2019-02-11T07:40:42.999Z,19.90
2019-02-11T07:43:26.098Z,20.08
2019-02-11T07:46:15.436Z,19.48
2019-02-11T07:48:54.925Z,21.15
2019-02-11T07:51:41.975Z,21.05
2019-02-11T07:54:14.668Z,19.98
2019-02-11T07:56:53.887Z,18.32
2019-02-11T07:59:33.293Z,20.35
2019-02-11T08:02:12.905Z,19.07
2019-02-11T08:04:52.192Z,17.48
2019-02-11T08:07:31.268Z,17.42
2019-02-11T08:10:10.196Z,16.57
2019-02-11T08:12:50.173Z,16.65
2019-02-11T08:15:29.624Z,18.12
2019-02-11T08:18:09.872Z,16.75
2019-02-11T08:20:50.091Z,17.05
2019-02-11T08:23:29.388Z,17.65
2019-02-11T08:26:12.707Z,18.00
2019-02-11T08:28:52.028Z,16.45
2019-02-11T08:31:32.863Z,14.33
2019-02-11T08:34:14.166Z,18.20
2019-02-11T08:36:54.184Z,18.10
2019-02-11T08:39:33.694Z,18.45
2019-02-11T08:42:13.596Z,16.90
2019-02-11T08:44:53.155Z,18.00
2019-02-11T08:47:32.508Z,17.92
2019-02-11T08:50:12.873Z,18.92
2019-02-11T08:52:54.574Z,18.90
2019-02-11T08:55:33.880Z,18.32
2019-02-11T08:58:13.107Z,20.10
2019-02-11T09:00:52.217Z,19.12
2019-02-11T09:03:31.635Z,18.37
2019-02-11T09:06:11.984Z,20.35
2019-02-11T09:08:51.171Z,19.67
2019-02-11T09:11:31.451Z,19.12
2019-02-11T09:14:10.983Z,17.10
2019-02-11T09:16:50.549Z,19.15
2019-02-11T09:19:30.334Z,19.27
2019-02-11T09:22:10.103Z,20.37
2019-02-11T09:38:13.463Z,18.62
2019-02-11T09:40:53.295Z,19.07
2019-02-11T09:43:32.440Z,19.98
2019-02-11T09:46:14.594Z,19.23
2019-02-11T09:48:54.707Z,19.15
2019-02-11T09:51:39.563Z,19.32
2019-02-11T09:54:20.943Z,17.85
2019-02-11T09:57:02.026Z,18.80
2019-02-11T09:59:42.036Z,18.62
2019-02-11T10:02:21.633Z,18.12
2019-02-11T10:05:00.928Z,17.90
2019-02-11T10:07:39.844Z,18.95
2019-02-11T10:10:20.628Z,18.15
2019-02-11T10:13:00.519Z,16.95
2019-02-11T10:15:40.149Z,17.12
2019-02-11T10:18:19.737Z,17.60
2019-02-11T10:20:58.783Z,17.57
2019-02-11T10:23:39.943Z,18.90
2019-02-11T10:26:21.585Z,17.45
2019-02-11T10:29:01.229Z,17.55
2019-02-11T10:31:40.701Z,17.92
2019-02-11T10:34:20.579Z,16.95
2019-02-11T10:37:03.539Z,17.80
2019-02-11T10:39:43.801Z,16.62
2019-02-11T10:42:23.009Z,17.62
2019-02-11T10:45:02.215Z,17.20
2019-02-11T10:47:41.659Z,17.42
2019-02-11T10:50:22.364Z,18.62
2019-02-11T11:31:19.636Z,18.92
2019-02-11T11:33:58.890Z,18.55
2019-02-11T11:36:39.103Z,18.90
2019-02-11T11:39:25.452Z,17.57
2019-02-11T11:42:04.883Z,19.12
2019-02-11T11:47:45.709Z,20.05
2019-02-11T11:50:24.957Z,19.52
2019-02-11T11:53:05.321Z,20.48
2019-02-11T11:55:45.157Z,18.00
2019-02-11T11:58:28.519Z,17.92
2019-02-11T12:01:10.584Z,17.67
2019-02-11T12:03:50.912Z,17.65
2019-02-11T12:06:32.754Z,17.62
2019-02-11T12:09:12.678Z,17.33
2019-02-11T12:11:53.006Z,16.27
2019-02-11T12:14:34.753Z,19.32
2019-02-11T12:17:14.008Z,15.93
2019-02-11T12:19:55.078Z,17.02
2019-02-11T12:22:33.830Z,17.27
2019-02-11T12:25:14.850Z,17.70
2019-02-11T12:27:58.213Z,15.53
2019-02-11T12:30:38.145Z,15.78
2019-02-11T12:33:18.857Z,14.95
2019-02-11T12:35:58.263Z,16.05
2019-02-11T12:38:38.512Z,16.05
2019-02-11T12:41:21.987Z,15.95
2019-02-11T12:44:02.888Z,14.93
2019-02-11T12:46:44.285Z,15.33
2019-02-11T12:49:23.875Z,15.83
2019-02-11T12:52:03.226Z,15.75
2019-02-11T12:54:42.969Z,14.65
2019-02-11T12:57:23.114Z,14.33
2019-02-11T13:00:03.084Z,14.65
2019-02-11T13:02:45.147Z,14.83
2019-02-11T13:05:43.102Z,13.72
2019-02-11T13:08:07.386Z,14.60
2019-02-11T13:10:47.907Z,14.47
2019-02-11T13:13:31.355Z,14.40
2019-02-11T13:16:10.724Z,13.00
2019-02-11T13:18:50.296Z,14.23
2019-02-11T13:21:29.527Z,13.78
2019-02-11T13:24:09.861Z,14.28
2019-02-11T13:26:50.105Z,14.65
2019-02-11T13:29:29.467Z,15.23
2019-02-11T13:32:15.521Z,14.00
2019-02-11T13:34:56.016Z,13.18
2019-02-11T13:37:35.128Z,14.05
2019-02-11T13:40:14.608Z,13.65
2019-02-11T13:42:54.951Z,14.53
2019-02-11T13:45:34.170Z,14.03
2019-02-11T13:48:15.905Z,13.80
2019-02-11T13:50:59.001Z,14.30
2019-02-11T13:53:44.347Z,15.28
2019-02-11T13:56:27.094Z,15.63
2019-02-11T13:59:08.009Z,14.60
2019-02-11T14:01:48.393Z,14.25
2019-02-11T14:04:28.468Z,14.30
2019-02-11T14:07:08.433Z,14.73
2019-02-11T14:09:48.823Z,15.72
2019-02-11T14:12:29.207Z,15.03
2019-02-11T14:15:09.757Z,15.58
2019-02-11T14:17:50.193Z,16.17
2019-02-11T14:20:34.308Z,17.50
2019-02-11T14:23:18.612Z,16.75
2019-02-11T14:26:00.189Z,16.42
2019-02-11T14:28:49.999Z,16.20
2019-02-11T14:31:39.065Z,15.83
2019-02-11T14:34:23.105Z,15.88
2019-02-11T14:37:04.586Z,15.43
2019-02-11T14:39:45.327Z,14.97
2019-02-11T14:42:26.059Z,14.80
2019-02-11T14:45:06.770Z,15.15
2019-02-11T14:47:50.986Z,14.73
2019-02-11T14:50:30.476Z,15.35
2019-02-11T14:53:50.140Z,15.88
2019-02-11T14:56:50.699Z,15.32
2019-02-11T14:59:33.191Z,15.93
2019-02-11T15:02:30.355Z,15.83
2019-02-11T15:05:39.423Z,15.85
2019-02-11T15:08:22.160Z,14.50
2019-02-11T15:11:02.624Z,15.75
2019-02-11T15:13:47.100Z,14.33
2019-02-11T15:16:28.128Z,13.68
2019-02-11T15:19:08.019Z,14.13
2019-02-11T15:21:51.845Z,15.35
2019-02-11T15:24:32.192Z,14.95
2019-02-11T15:27:17.204Z,15.10
2019-02-11T15:29:52.966Z,14.65
2019-02-11T15:32:32.268Z,15.63
2019-02-11T15:35:14.342Z,15.95
2019-02-11T15:37:54.161Z,16.30
2019-02-11T15:40:34.769Z,16.73
2019-02-11T15:43:15.413Z,17.35
2019-02-11T15:45:56.069Z,17.05
2019-02-11T15:48:42.881Z,17.05
2019-02-11T15:51:20.820Z,18.75
2019-02-11T15:54:02.042Z,18.27
2019-02-11T15:56:41.190Z,18.07
2019-02-11T15:59:20.353Z,17.90
2019-02-11T16:02:03.196Z,18.95
2019-02-11T16:04:42.922Z,17.10
2019-02-11T16:07:22.260Z,17.27
2019-02-11T16:10:01.237Z,16.80
2019-02-11T16:12:43.705Z,16.62
2019-02-11T16:15:23.615Z,16.97
2019-02-11T16:18:03.431Z,17.12
2019-02-11T16:20:43.884Z,16.35
2019-02-11T16:23:24.723Z,17.95
2019-02-11T16:26:04.164Z,18.50
2019-02-11T16:28:44.919Z,18.82
2019-02-11T16:31:25.562Z,18.30
2019-02-11T16:34:08.616Z,17.82
2019-02-11T16:36:51.250Z,17.70
2019-02-11T16:39:33.861Z,17.50
2019-02-11T16:42:16.411Z,16.23
2019-02-11T16:44:59.046Z,15.32
2019-02-11T16:47:39.078Z,14.68
2019-02-11T16:50:20.988Z,15.35
2019-02-11T16:53:01.017Z,14.95
2019-02-11T16:55:44.975Z,15.45
2019-02-11T16:58:28.874Z,15.85
2019-02-11T17:01:10.362Z,15.68
2019-02-11T17:03:49.574Z,15.20
2019-02-11T17:06:28.967Z,15.18
2019-02-11T17:09:09.869Z,16.30
2019-02-11T17:11:51.019Z,16.12
2019-02-11T17:14:32.130Z,16.87
2019-02-11T17:17:12.423Z,16.70
2019-02-11T17:19:52.346Z,15.75
2019-02-11T17:22:33.977Z,16.15
2019-02-11T17:25:13.904Z,16.15
2019-02-11T17:27:55.947Z,17.52
2019-02-11T17:30:35.327Z,18.85
2019-02-11T17:33:15.672Z,17.23
2019-02-11T17:35:55.506Z,18.10
2019-02-11T17:38:36.776Z,16.97
2019-02-11T17:41:16.050Z,18.00
2019-02-11T17:43:55.173Z,16.42
2019-02-11T17:46:34.425Z,16.55
2019-02-11T17:49:17.816Z,15.98
2019-02-11T17:51:55.898Z,14.85
2019-02-11T17:54:35.236Z,14.75
2019-02-11T17:57:15.753Z,14.95
2019-02-11T17:59:55.744Z,14.53
2019-02-11T18:02:36.495Z,14.85
2019-02-11T18:05:15.915Z,13.25
2019-02-11T18:07:57.344Z,14.63
2019-02-11T18:10:36.777Z,14.83
2019-02-11T18:13:16.779Z,14.93
2019-02-11T18:15:56.852Z,14.40
2019-02-11T18:18:35.905Z,15.08
2019-02-11T18:21:15.600Z,14.50
2019-02-11T18:23:55.429Z,16.02
2019-02-11T18:26:36.414Z,15.70
2019-02-11T18:29:17.377Z,16.77
2019-02-11T18:31:57.740Z,14.70
2019-02-11T18:34:37.571Z,15.20
2019-02-11T18:37:17.439Z,16.67
2019-02-11T18:39:59.365Z,14.98
2019-02-11T18:42:39.783Z,15.05
2019-02-11T18:45:20.315Z,15.43
2019-02-11T18:48:02.242Z,15.13
2019-02-11T18:50:44.614Z,16.20
2019-02-11T18:53:23.711Z,15.85
2019-02-11T18:56:03.130Z,15.85
2019-02-11T18:58:45.838Z,16.00
2019-02-11T19:01:25.359Z,16.27
2019-02-11T19:04:05.114Z,15.18
2019-02-11T19:06:44.380Z,15.23
2019-02-11T19:09:23.717Z,15.48
2019-02-11T19:12:02.861Z,14.98
2019-02-11T19:14:44.431Z,15.93
2019-02-11T19:17:23.092Z,15.48
2019-02-11T19:20:02.495Z,15.18
2019-02-11T19:22:42.624Z,16.55
2019-02-11T19:25:22.778Z,16.85
2019-02-11T19:28:01.901Z,17.05
2019-02-11T19:30:42.097Z,16.95
2019-02-11T19:33:23.876Z,15.72
2019-02-11T19:36:02.857Z,14.75
2019-02-11T19:38:43.155Z,14.63
2019-02-11T19:41:21.993Z,15.23
2019-02-11T19:44:01.449Z,15.00
2019-02-11T19:46:40.896Z,14.03
2019-02-11T19:49:20.038Z,13.98
2019-02-11T19:51:59.241Z,14.85
2019-02-11T19:54:39.272Z,14.83
2019-02-11T19:57:18.442Z,14.55
2019-02-11T19:59:57.908Z,13.80
2019-02-11T20:02:37.748Z,14.15
2019-02-11T20:05:17.096Z,15.80
2019-02-11T20:07:56.318Z,16.95
2019-02-11T20:10:35.504Z,15.93
2019-02-11T20:13:14.668Z,15.70
2019-02-11T20:15:53.798Z,14.93
2019-02-11T20:18:32.801Z,15.65
2019-02-11T20:21:12.087Z,14.15
2019-02-11T20:23:51.392Z,14.60
2019-02-11T20:26:31.293Z,14.95
2019-02-11T20:29:10.520Z,15.32
2019-02-11T20:31:49.654Z,17.12
2019-02-11T20:34:29.159Z,16.27
2019-02-11T20:37:08.984Z,15.80
2019-02-11T20:39:48.977Z,16.32
2019-02-11T20:42:28.226Z,14.85
2019-02-11T20:45:08.032Z,15.45
2019-02-11T20:47:48.261Z,16.20
2019-02-11T20:50:27.367Z,27.67
2019-02-11T20:53:08.595Z,14.30
2019-02-11T20:55:52.676Z,14.60
2019-02-11T20:58:31.593Z,16.82
2019-02-11T21:01:10.568Z,16.48
2019-02-11T21:03:49.728Z,16.27
2019-02-11T21:06:28.708Z,14.78
2019-02-11T21:09:08.329Z,15.45
2019-02-11T21:11:49.171Z,16.32
2019-02-11T21:14:29.443Z,14.18
2019-02-11T21:17:09.177Z,13.90
2019-02-11T21:19:48.566Z,13.03
2019-02-11T21:22:27.731Z,13.65
2019-02-11T21:25:08.043Z,13.70
2019-02-11T21:27:47.918Z,13.88
2019-02-11T21:30:27.100Z,12.78
2019-02-11T21:33:06.122Z,13.50
2019-02-11T21:35:44.849Z,12.20
2019-02-11T21:38:23.940Z,12.73
2019-02-11T21:41:03.283Z,11.78
2019-02-11T21:43:42.438Z,10.95
2019-02-11T21:46:21.557Z,10.48
2019-02-11T21:49:00.499Z,11.28
2019-02-11T21:51:39.873Z,29.00
2019-02-11T21:54:19.004Z,12.93
2019-02-11T21:56:58.966Z,10.68
2019-02-11T21:59:39.026Z,10.98
2019-02-11T22:02:18.138Z,11.03
2019-02-11T22:05:01.303Z,12.50
2019-02-11T22:07:40.582Z,12.68
2019-02-11T22:10:19.244Z,11.78
2019-02-11T22:12:59.454Z,12.15
2019-02-11T22:15:38.439Z,12.53
2019-02-11T22:18:17.662Z,12.55
2019-02-11T22:20:57.748Z,12.82
2019-02-11T22:23:37.897Z,13.00
2019-02-11T22:26:17.136Z,13.28
2019-02-11T22:28:56.308Z,13.83
2019-02-11T22:31:35.561Z,13.90
2019-02-11T22:34:14.853Z,13.83
2019-02-11T22:36:57.534Z,23.85
2019-02-11T22:39:37.078Z,22.95
2019-02-11T22:42:16.440Z,12.25
2019-02-11T22:44:55.561Z,11.53
2019-02-11T22:47:37.845Z,11.18
2019-02-11T22:50:17.329Z,11.68
2019-02-11T22:52:56.948Z,10.93
2019-02-11T22:55:36.188Z,11.53
2019-02-11T22:58:16.583Z,12.30
2019-02-11T23:01:04.297Z,11.93
2019-02-11T23:03:44.235Z,11.88
2019-02-11T23:06:23.606Z,11.95
2019-02-11T23:09:02.965Z,11.83
2019-02-11T23:11:43.548Z,12.60
2019-02-11T23:14:22.593Z,13.28
2019-02-11T23:17:01.368Z,11.65
2019-02-11T23:19:41.268Z,11.22
2019-02-11T23:22:20.230Z,11.15
2019-02-11T23:24:59.975Z,10.53
2019-02-11T23:27:40.641Z,10.58
2019-02-11T23:30:20.597Z,10.30
2019-02-11T23:33:01.890Z,10.23
2019-02-11T23:35:42.147Z,10.48
2019-02-11T23:38:21.820Z,10.32
2019-02-11T23:41:00.986Z,10.63
2019-02-11T23:43:40.730Z,9.83
2019-02-11T23:46:19.968Z,9.25
2019-02-11T23:48:59.094Z,10.53
2019-02-11T23:51:38.422Z,11.00
2019-02-11T23:54:17.527Z,10.50
2019-02-11T23:56:56.510Z,9.80
2019-02-11T23:59:35.518Z,10.38
